sensor_id;sensor_type;location;lat;lon;timestamp;P1;durP1;ratioP1;P2;durP2;ratioP2
41693;SDS011;27377;50.666;9.150;2022-12-08T00:01:07;14.90;;;7.60;;
41693;SDS011;27377;50.666;9.150;2022-12-08T00:03:35;12.95;;;7.55;;
41693;SDS011;27377;50.666;9.150;2022-12-08T00:06:02;11.30;;;7.70;;
41693;SDS011;27377;50.666;9.150;2022-12-08T00:08:49;12.00;;;7.72;;
41693;SDS011;27377;50.666;9.150;2022-12-08T00:11:34;11.75;;;7.40;;
41693;SDS011;27377;50.666;9.150;2022-12-08T00:14:00;13.15;;;7.75;;
41693;SDS011;27377;50.666;9.150;2022-12-08T00:16:25;12.77;;;7.65;;
41693;SDS011;27377;50.666;9.150;2022-12-08T00:18:51;13.30;;;7.82;;
41693;SDS011;27377;50.666;9.150;2022-12-08T00:21:19;15.13;;;7.93;;
41693;SDS011;27377;50.666;9.150;2022-12-08T00:23:45;13.30;;;8.10;;
41693;SDS011;27377;50.666;9.150;2022-12-08T00:26:11;15.93;;;8.30;;
41693;SDS011;27377;50.666;9.150;2022-12-08T00:28:36;14.50;;;8.60;;
41693;SDS011;27377;50.666;9.150;2022-12-08T00:31:08;12.68;;;8.32;;
41693;SDS011;27377;50.666;9.150;2022-12-08T00:33:38;13.95;;;9.05;;
41693;SDS011;27377;50.666;9.150;2022-12-08T00:36:05;13.00;;;8.43;;
41693;SDS011;27377;50.666;9.150;2022-12-08T00:38:34;13.60;;;9.00;;
41693;SDS011;27377;50.666;9.150;2022-12-08T00:41:14;14.30;;;8.65;;
41693;SDS011;27377;50.666;9.150;2022-12-08T00:43:45;14.57;;;8.77;;
41693;SDS011;27377;50.666;9.150;2022-12-08T00:46:10;15.70;;;9.68;;
41693;SDS011;27377;50.666;9.150;2022-12-08T00:48:36;16.13;;;9.45;;
41693;SDS011;27377;50.666;9.150;2022-12-08T00:51:02;16.45;;;9.45;;
41693;SDS011;27377;50.666;9.150;2022-12-08T00:53:30;17.15;;;9.32;;
41693;SDS011;27377;50.666;9.150;2022-12-08T00:55:56;15.93;;;9.90;;
41693;SDS011;27377;50.666;9.150;2022-12-08T00:58:21;16.37;;;9.73;;
41693;SDS011;27377;50.666;9.150;2022-12-08T01:00:48;16.05;;;10.00;;
41693;SDS011;27377;50.666;9.150;2022-12-08T01:03:13;16.40;;;9.80;;
41693;SDS011;27377;50.666;9.150;2022-12-08T01:05:39;16.80;;;9.90;;
41693;SDS011;27377;50.666;9.150;2022-12-08T01:08:05;17.33;;;10.43;;
41693;SDS011;27377;50.666;9.150;2022-12-08T01:10:34;15.80;;;9.65;;
41693;SDS011;27377;50.666;9.150;2022-12-08T01:13:00;14.77;;;9.75;;
41693;SDS011;27377;50.666;9.150;2022-12-08T01:15:26;15.05;;;9.50;;
41693;SDS011;27377;50.666;9.150;2022-12-08T01:17:52;15.82;;;9.75;;
41693;SDS011;27377;50.666;9.150;2022-12-08T01:20:17;16.87;;;10.70;;
41693;SDS011;27377;50.666;9.150;2022-12-08T01:22:43;16.03;;;10.00;;
41693;SDS011;27377;50.666;9.150;2022-12-08T01:25:08;16.60;;;10.20;;
41693;SDS011;27377;50.666;9.150;2022-12-08T01:27:37;14.70;;;9.97;;
41693;SDS011;27377;50.666;9.150;2022-12-08T01:30:03;15.18;;;9.85;;
41693;SDS011;27377;50.666;9.150;2022-12-08T01:32:29;15.40;;;10.40;;
41693;SDS011;27377;50.666;9.150;2022-12-08T01:34:54;15.83;;;10.00;;
41693;SDS011;27377;50.666;9.150;2022-12-08T01:37:23;18.50;;;10.40;;
41693;SDS011;27377;50.666;9.150;2022-12-08T01:39:48;15.30;;;10.27;;
41693;SDS011;27377;50.666;9.150;2022-12-08T01:42:17;17.50;;;10.47;;
41693;SDS011;27377;50.666;9.150;2022-12-08T01:44:48;15.98;;;10.40;;
41693;SDS011;27377;50.666;9.150;2022-12-08T01:47:18;19.52;;;11.10;;
41693;SDS011;27377;50.666;9.150;2022-12-08T01:49:44;16.42;;;11.15;;
41693;SDS011;27377;50.666;9.150;2022-12-08T01:52:13;18.03;;;10.87;;
41693;SDS011;27377;50.666;9.150;2022-12-08T01:54:42;20.53;;;12.27;;
41693;SDS011;27377;50.666;9.150;2022-12-08T01:57:16;17.85;;;10.95;;
41693;SDS011;27377;50.666;9.150;2022-12-08T01:59:51;18.07;;;11.43;;
41693;SDS011;27377;50.666;9.150;2022-12-08T02:02:22;18.27;;;10.88;;
41693;SDS011;27377;50.666;9.150;2022-12-08T02:04:53;16.95;;;11.27;;
41693;SDS011;27377;50.666;9.150;2022-12-08T02:07:19;16.47;;;11.10;;
41693;SDS011;27377;50.666;9.150;2022-12-08T02:09:45;17.57;;;11.23;;
41693;SDS011;27377;50.666;9.150;2022-12-08T02:12:11;16.27;;;10.82;;
41693;SDS011;27377;50.666;9.150;2022-12-08T02:14:37;17.90;;;10.80;;
41693;SDS011;27377;50.666;9.150;2022-12-08T02:17:20;17.83;;;11.50;;
41693;SDS011;27377;50.666;9.150;2022-12-08T02:20:15;15.90;;;11.38;;
41693;SDS011;27377;50.666;9.150;2022-12-08T02:28:28;17.10;;;10.93;;
41693;SDS011;27377;50.666;9.150;2022-12-08T02:42:20;19.35;;;11.50;;
41693;SDS011;27377;50.666;9.150;2022-12-08T02:44:53;16.20;;;11.03;;
41693;SDS011;27377;50.666;9.150;2022-12-08T02:47:22;19.27;;;12.15;;
41693;SDS011;27377;50.666;9.150;2022-12-08T02:49:50;18.33;;;11.95;;
41693;SDS011;27377;50.666;9.150;2022-12-08T02:55:02;16.38;;;11.00;;
41693;SDS011;27377;50.666;9.150;2022-12-08T03:00:22;18.33;;;11.32;;
41693;SDS011;27377;50.666;9.150;2022-12-08T03:05:47;17.42;;;11.43;;
41693;SDS011;27377;50.666;9.150;2022-12-08T03:08:56;16.63;;;11.00;;
41693;SDS011;27377;50.666;9.150;2022-12-08T03:11:27;18.55;;;12.25;;
41693;SDS011;27377;50.666;9.150;2022-12-08T03:13:59;18.17;;;11.23;;
41693;SDS011;27377;50.666;9.150;2022-12-08T03:16:28;17.67;;;11.98;;
41693;SDS011;27377;50.666;9.150;2022-12-08T03:18:59;16.58;;;11.75;;
41693;SDS011;27377;50.666;9.150;2022-12-08T03:21:33;18.83;;;11.87;;
41693;SDS011;27377;50.666;9.150;2022-12-08T03:24:01;16.90;;;11.60;;
41693;SDS011;27377;50.666;9.150;2022-12-08T03:29:10;19.13;;;12.15;;
41693;SDS011;27377;50.666;9.150;2022-12-08T03:31:38;18.08;;;11.82;;
41693;SDS011;27377;50.666;9.150;2022-12-08T03:34:08;16.63;;;11.40;;
41693;SDS011;27377;50.666;9.150;2022-12-08T03:36:36;17.80;;;11.60;;
41693;SDS011;27377;50.666;9.150;2022-12-08T03:39:02;16.67;;;11.70;;
41693;SDS011;27377;50.666;9.150;2022-12-08T03:41:28;16.90;;;11.25;;
41693;SDS011;27377;50.666;9.150;2022-12-08T03:43:54;16.30;;;11.20;;
41693;SDS011;27377;50.666;9.150;2022-12-08T03:46:23;17.17;;;10.88;;
41693;SDS011;27377;50.666;9.150;2022-12-08T03:48:50;15.80;;;10.98;;
41693;SDS011;27377;50.666;9.150;2022-12-08T03:51:16;15.27;;;10.52;;
41693;SDS011;27377;50.666;9.150;2022-12-08T03:53:43;16.08;;;10.85;;
41693;SDS011;27377;50.666;9.150;2022-12-08T03:58:48;18.27;;;11.40;;
41693;SDS011;27377;50.666;9.150;2022-12-08T04:01:14;17.83;;;11.02;;
41693;SDS011;27377;50.666;9.150;2022-12-08T04:03:39;19.13;;;11.23;;
41693;SDS011;27377;50.666;9.150;2022-12-08T04:06:05;17.02;;;10.93;;
41693;SDS011;27377;50.666;9.150;2022-12-08T04:08:31;15.82;;;11.02;;
41693;SDS011;27377;50.666;9.150;2022-12-08T04:10:57;17.25;;;11.30;;
41693;SDS011;27377;50.666;9.150;2022-12-08T04:13:23;17.60;;;10.57;;
41693;SDS011;27377;50.666;9.150;2022-12-08T04:15:48;15.93;;;10.80;;
41693;SDS011;27377;50.666;9.150;2022-12-08T04:18:14;15.10;;;10.70;;
41693;SDS011;27377;50.666;9.150;2022-12-08T04:20:41;16.75;;;10.13;;
41693;SDS011;27377;50.666;9.150;2022-12-08T04:23:08;16.70;;;10.80;;
41693;SDS011;27377;50.666;9.150;2022-12-08T04:25:34;17.52;;;10.77;;
41693;SDS011;27377;50.666;9.150;2022-12-08T04:28:00;17.35;;;10.75;;
41693;SDS011;27377;50.666;9.150;2022-12-08T04:30:26;18.45;;;11.05;;
41693;SDS011;27377;50.666;9.150;2022-12-08T04:32:51;17.10;;;11.07;;
41693;SDS011;27377;50.666;9.150;2022-12-08T04:35:17;15.73;;;11.40;;
41693;SDS011;27377;50.666;9.150;2022-12-08T04:37:42;18.67;;;11.80;;
41693;SDS011;27377;50.666;9.150;2022-12-08T04:40:08;18.47;;;12.17;;
41693;SDS011;27377;50.666;9.150;2022-12-08T04:42:35;18.63;;;12.50;;
41693;SDS011;27377;50.666;9.150;2022-12-08T04:45:01;20.00;;;12.05;;
41693;SDS011;27377;50.666;9.150;2022-12-08T04:47:28;18.20;;;12.27;;
41693;SDS011;27377;50.666;9.150;2022-12-08T04:49:54;20.88;;;12.40;;
41693;SDS011;27377;50.666;9.150;2022-12-08T04:52:20;19.83;;;12.43;;
41693;SDS011;27377;50.666;9.150;2022-12-08T04:54:48;19.67;;;12.75;;
41693;SDS011;27377;50.666;9.150;2022-12-08T04:57:13;20.08;;;12.50;;
41693;SDS011;27377;50.666;9.150;2022-12-08T04:59:39;22.55;;;11.80;;
41693;SDS011;27377;50.666;9.150;2022-12-08T05:02:05;16.42;;;11.43;;
41693;SDS011;27377;50.666;9.150;2022-12-08T05:04:30;16.55;;;11.43;;
41693;SDS011;27377;50.666;9.150;2022-12-08T05:06:56;17.63;;;11.57;;
41693;SDS011;27377;50.666;9.150;2022-12-08T05:09:22;19.93;;;11.17;;
41693;SDS011;27377;50.666;9.150;2022-12-08T05:11:47;16.92;;;10.85;;
41693;SDS011;27377;50.666;9.150;2022-12-08T05:14:13;16.98;;;10.65;;
41693;SDS011;27377;50.666;9.150;2022-12-08T05:16:40;17.98;;;11.35;;
41693;SDS011;27377;50.666;9.150;2022-12-08T05:19:06;18.05;;;10.43;;
41693;SDS011;27377;50.666;9.150;2022-12-08T05:21:32;16.08;;;10.95;;
41693;SDS011;27377;50.666;9.150;2022-12-08T05:23:58;15.43;;;10.30;;
41693;SDS011;27377;50.666;9.150;2022-12-08T05:26:23;17.27;;;10.43;;
41693;SDS011;27377;50.666;9.150;2022-12-08T05:28:49;17.20;;;10.52;;
41693;SDS011;27377;50.666;9.150;2022-12-08T05:31:15;16.23;;;10.55;;
41693;SDS011;27377;50.666;9.150;2022-12-08T05:33:41;18.02;;;11.48;;
41693;SDS011;27377;50.666;9.150;2022-12-08T05:36:08;18.92;;;11.05;;
41693;SDS011;27377;50.666;9.150;2022-12-08T05:38:36;19.45;;;11.05;;
41693;SDS011;27377;50.666;9.150;2022-12-08T05:41:01;16.92;;;10.82;;
41693;SDS011;27377;50.666;9.150;2022-12-08T05:43:27;18.45;;;11.93;;
41693;SDS011;27377;50.666;9.150;2022-12-08T05:45:53;17.57;;;11.60;;
41693;SDS011;27377;50.666;9.150;2022-12-08T05:48:18;18.67;;;11.73;;
41693;SDS011;27377;50.666;9.150;2022-12-08T05:50:45;18.90;;;12.00;;
41693;SDS011;27377;50.666;9.150;2022-12-08T05:53:12;19.58;;;12.50;;
41693;SDS011;27377;50.666;9.150;2022-12-08T05:55:41;20.55;;;12.93;;
41693;SDS011;27377;50.666;9.150;2022-12-08T05:58:08;22.80;;;13.90;;
41693;SDS011;27377;50.666;9.150;2022-12-08T06:00:37;22.33;;;13.82;;
41693;SDS011;27377;50.666;9.150;2022-12-08T06:03:03;22.13;;;14.87;;
41693;SDS011;27377;50.666;9.150;2022-12-08T06:05:32;22.92;;;14.82;;
41693;SDS011;27377;50.666;9.150;2022-12-08T06:07:58;24.73;;;14.50;;
41693;SDS011;27377;50.666;9.150;2022-12-08T06:10:24;22.55;;;14.48;;
41693;SDS011;27377;50.666;9.150;2022-12-08T06:12:50;21.52;;;14.38;;
41693;SDS011;27377;50.666;9.150;2022-12-08T06:15:16;24.17;;;14.48;;
41693;SDS011;27377;50.666;9.150;2022-12-08T06:17:42;23.08;;;14.57;;
41693;SDS011;27377;50.666;9.150;2022-12-08T06:20:07;25.20;;;15.80;;
41693;SDS011;27377;50.666;9.150;2022-12-08T06:22:34;24.27;;;15.50;;
41693;SDS011;27377;50.666;9.150;2022-12-08T06:24:59;23.83;;;15.38;;
41693;SDS011;27377;50.666;9.150;2022-12-08T06:27:25;27.13;;;16.00;;
41693;SDS011;27377;50.666;9.150;2022-12-08T06:29:50;24.80;;;16.53;;
41693;SDS011;27377;50.666;9.150;2022-12-08T06:32:16;25.25;;;16.48;;
41693;SDS011;27377;50.666;9.150;2022-12-08T06:34:45;25.30;;;15.60;;
41693;SDS011;27377;50.666;9.150;2022-12-08T06:37:10;24.13;;;15.70;;
41693;SDS011;27377;50.666;9.150;2022-12-08T06:39:36;24.42;;;15.90;;
41693;SDS011;27377;50.666;9.150;2022-12-08T06:42:01;25.03;;;16.17;;
41693;SDS011;27377;50.666;9.150;2022-12-08T06:44:46;24.00;;;16.23;;
41693;SDS011;27377;50.666;9.150;2022-12-08T06:47:11;24.38;;;16.13;;
41693;SDS011;27377;50.666;9.150;2022-12-08T06:49:37;26.27;;;16.27;;
41693;SDS011;27377;50.666;9.150;2022-12-08T06:52:03;26.93;;;16.37;;
41693;SDS011;27377;50.666;9.150;2022-12-08T06:54:29;26.50;;;16.80;;
41693;SDS011;27377;50.666;9.150;2022-12-08T06:56:55;28.00;;;16.23;;
41693;SDS011;27377;50.666;9.150;2022-12-08T06:59:20;24.80;;;16.43;;
41693;SDS011;27377;50.666;9.150;2022-12-08T07:01:46;27.02;;;17.00;;
41693;SDS011;27377;50.666;9.150;2022-12-08T07:04:11;25.13;;;16.15;;
41693;SDS011;27377;50.666;9.150;2022-12-08T07:06:37;26.98;;;16.55;;
41693;SDS011;27377;50.666;9.150;2022-12-08T07:09:03;27.63;;;16.90;;
41693;SDS011;27377;50.666;9.150;2022-12-08T07:11:28;27.27;;;16.40;;
41693;SDS011;27377;50.666;9.150;2022-12-08T07:13:54;25.87;;;16.27;;
41693;SDS011;27377;50.666;9.150;2022-12-08T07:16:21;25.73;;;16.02;;
41693;SDS011;27377;50.666;9.150;2022-12-08T07:18:47;26.45;;;16.77;;
41693;SDS011;27377;50.666;9.150;2022-12-08T07:21:13;25.33;;;16.17;;
41693;SDS011;27377;50.666;9.150;2022-12-08T07:23:39;24.85;;;16.40;;
41693;SDS011;27377;50.666;9.150;2022-12-08T07:26:06;24.63;;;16.50;;
41693;SDS011;27377;50.666;9.150;2022-12-08T07:28:35;25.30;;;16.63;;
41693;SDS011;27377;50.666;9.150;2022-12-08T07:31:02;25.50;;;16.60;;
41693;SDS011;27377;50.666;9.150;2022-12-08T07:33:29;24.35;;;16.02;;
41693;SDS011;27377;50.666;9.150;2022-12-08T07:35:55;26.30;;;16.63;;
41693;SDS011;27377;50.666;9.150;2022-12-08T07:38:26;24.38;;;15.93;;
41693;SDS011;27377;50.666;9.150;2022-12-08T07:40:52;24.48;;;15.32;;
41693;SDS011;27377;50.666;9.150;2022-12-08T07:43:21;24.27;;;15.07;;
41693;SDS011;27377;50.666;9.150;2022-12-08T07:45:48;25.40;;;15.30;;
41693;SDS011;27377;50.666;9.150;2022-12-08T07:48:14;22.17;;;14.90;;
41693;SDS011;27377;50.666;9.150;2022-12-08T07:50:40;25.30;;;15.27;;
41693;SDS011;27377;50.666;9.150;2022-12-08T07:53:06;23.93;;;15.40;;
41693;SDS011;27377;50.666;9.150;2022-12-08T07:55:39;24.30;;;15.27;;
41693;SDS011;27377;50.666;9.150;2022-12-08T07:58:08;22.45;;;15.30;;
41693;SDS011;27377;50.666;9.150;2022-12-08T08:00:34;24.95;;;15.48;;
41693;SDS011;27377;50.666;9.150;2022-12-08T08:03:01;24.23;;;15.52;;
41693;SDS011;27377;50.666;9.150;2022-12-08T08:05:26;25.92;;;15.43;;
41693;SDS011;27377;50.666;9.150;2022-12-08T08:07:52;23.73;;;15.10;;
41693;SDS011;27377;50.666;9.150;2022-12-08T08:10:18;27.67;;;15.87;;
41693;SDS011;27377;50.666;9.150;2022-12-08T08:12:43;23.10;;;15.10;;
41693;SDS011;27377;50.666;9.150;2022-12-08T08:15:09;21.93;;;15.00;;
41693;SDS011;27377;50.666;9.150;2022-12-08T08:17:35;23.88;;;14.70;;
41693;SDS011;27377;50.666;9.150;2022-12-08T08:20:02;24.42;;;14.80;;
41693;SDS011;27377;50.666;9.150;2022-12-08T08:22:30;24.17;;;15.10;;
41693;SDS011;27377;50.666;9.150;2022-12-08T08:24:56;22.65;;;14.32;;
41693;SDS011;27377;50.666;9.150;2022-12-08T08:27:22;23.43;;;15.17;;
41693;SDS011;27377;50.666;9.150;2022-12-08T08:29:49;21.55;;;13.68;;
41693;SDS011;27377;50.666;9.150;2022-12-08T08:32:14;20.45;;;14.20;;
41693;SDS011;27377;50.666;9.150;2022-12-08T08:34:40;21.97;;;14.20;;
41693;SDS011;27377;50.666;9.150;2022-12-08T08:37:06;24.70;;;15.07;;
41693;SDS011;27377;50.666;9.150;2022-12-08T08:39:31;25.27;;;15.27;;
41693;SDS011;27377;50.666;9.150;2022-12-08T08:41:57;22.13;;;14.93;;
41693;SDS011;27377;50.666;9.150;2022-12-08T08:44:22;23.17;;;14.40;;
41693;SDS011;27377;50.666;9.150;2022-12-08T08:46:48;22.25;;;14.00;;
41693;SDS011;27377;50.666;9.150;2022-12-08T08:49:13;22.30;;;14.18;;
41693;SDS011;27377;50.666;9.150;2022-12-08T08:51:39;22.00;;;14.18;;
41693;SDS011;27377;50.666;9.150;2022-12-08T08:54:05;23.08;;;13.68;;
41693;SDS011;27377;50.666;9.150;2022-12-08T08:56:30;21.52;;;14.10;;
41693;SDS011;27377;50.666;9.150;2022-12-08T08:58:56;21.17;;;13.63;;
41693;SDS011;27377;50.666;9.150;2022-12-08T09:01:23;20.20;;;13.90;;
41693;SDS011;27377;50.666;9.150;2022-12-08T09:03:50;22.50;;;14.03;;
41693;SDS011;27377;50.666;9.150;2022-12-08T09:06:16;22.88;;;14.18;;
41693;SDS011;27377;50.666;9.150;2022-12-08T09:08:43;24.20;;;14.48;;
41693;SDS011;27377;50.666;9.150;2022-12-08T09:11:09;24.88;;;14.00;;
41693;SDS011;27377;50.666;9.150;2022-12-08T09:13:35;22.13;;;14.30;;
41693;SDS011;27377;50.666;9.150;2022-12-08T09:16:01;23.47;;;14.33;;
41693;SDS011;27377;50.666;9.150;2022-12-08T09:18:28;21.77;;;13.35;;
41693;SDS011;27377;50.666;9.150;2022-12-08T09:20:54;20.73;;;13.18;;
41693;SDS011;27377;50.666;9.150;2022-12-08T09:23:20;21.17;;;13.37;;
41693;SDS011;27377;50.666;9.150;2022-12-08T09:25:45;19.88;;;13.13;;
41693;SDS011;27377;50.666;9.150;2022-12-08T09:28:11;21.10;;;13.60;;
41693;SDS011;27377;50.666;9.150;2022-12-08T09:30:38;20.42;;;12.75;;
41693;SDS011;27377;50.666;9.150;2022-12-08T09:33:04;20.85;;;12.38;;
41693;SDS011;27377;50.666;9.150;2022-12-08T09:35:30;20.03;;;12.33;;
41693;SDS011;27377;50.666;9.150;2022-12-08T09:37:55;19.03;;;12.27;;
41693;SDS011;27377;50.666;9.150;2022-12-08T09:40:21;19.83;;;12.53;;
41693;SDS011;27377;50.666;9.150;2022-12-08T09:42:50;17.90;;;12.30;;
41693;SDS011;27377;50.666;9.150;2022-12-08T09:45:22;22.10;;;13.13;;
41693;SDS011;27377;50.666;9.150;2022-12-08T09:47:58;18.40;;;13.05;;
41693;SDS011;27377;50.666;9.150;2022-12-08T09:50:31;20.17;;;13.17;;
41693;SDS011;27377;50.666;9.150;2022-12-08T09:53:05;22.13;;;13.13;;
41693;SDS011;27377;50.666;9.150;2022-12-08T09:55:41;19.10;;;12.63;;
41693;SDS011;27377;50.666;9.150;2022-12-08T09:58:16;20.13;;;12.93;;
41693;SDS011;27377;50.666;9.150;2022-12-08T10:01:03;18.17;;;12.02;;
41693;SDS011;27377;50.666;9.150;2022-12-08T10:03:29;19.55;;;12.32;;
41693;SDS011;27377;50.666;9.150;2022-12-08T10:08:42;20.05;;;12.23;;
41693;SDS011;27377;50.666;9.150;2022-12-08T10:11:31;20.70;;;13.03;;
41693;SDS011;27377;50.666;9.150;2022-12-08T10:14:14;18.35;;;12.20;;
41693;SDS011;27377;50.666;9.150;2022-12-08T10:16:48;19.33;;;12.52;;
41693;SDS011;27377;50.666;9.150;2022-12-08T10:21:45;19.08;;;12.57;;
41693;SDS011;27377;50.666;9.150;2022-12-08T10:24:12;20.55;;;12.80;;
41693;SDS011;27377;50.666;9.150;2022-12-08T10:26:50;20.67;;;13.15;;
41693;SDS011;27377;50.666;9.150;2022-12-08T10:29:16;20.07;;;13.13;;
41693;SDS011;27377;50.666;9.150;2022-12-08T10:31:41;20.30;;;12.90;;
41693;SDS011;27377;50.666;9.150;2022-12-08T10:34:15;19.17;;;13.00;;
41693;SDS011;27377;50.666;9.150;2022-12-08T10:36:47;19.85;;;13.07;;
41693;SDS011;27377;50.666;9.150;2022-12-08T10:39:37;18.83;;;12.67;;
41693;SDS011;27377;50.666;9.150;2022-12-08T10:42:15;19.87;;;13.23;;
41693;SDS011;27377;50.666;9.150;2022-12-08T10:47:20;18.83;;;12.55;;
41693;SDS011;27377;50.666;9.150;2022-12-08T10:49:49;18.00;;;12.05;;
41693;SDS011;27377;50.666;9.150;2022-12-08T10:52:31;19.10;;;12.50;;
41693;SDS011;27377;50.666;9.150;2022-12-08T10:55:03;17.23;;;11.40;;
41693;SDS011;27377;50.666;9.150;2022-12-08T10:57:37;20.40;;;12.48;;
41693;SDS011;27377;50.666;9.150;2022-12-08T11:00:03;18.27;;;11.85;;
41693;SDS011;27377;50.666;9.150;2022-12-08T11:02:29;19.05;;;12.00;;
41693;SDS011;27377;50.666;9.150;2022-12-08T11:04:55;17.50;;;11.90;;
41693;SDS011;27377;50.666;9.150;2022-12-08T11:07:23;18.70;;;11.07;;
41693;SDS011;27377;50.666;9.150;2022-12-08T11:09:51;16.83;;;11.27;;
41693;SDS011;27377;50.666;9.150;2022-12-08T11:12:20;19.23;;;12.18;;
41693;SDS011;27377;50.666;9.150;2022-12-08T11:14:50;18.13;;;11.52;;
41693;SDS011;27377;50.666;9.150;2022-12-08T11:22:36;18.05;;;11.45;;
41693;SDS011;27377;50.666;9.150;2022-12-08T11:27:35;19.83;;;11.43;;
41693;SDS011;27377;50.666;9.150;2022-12-08T11:30:11;16.80;;;11.32;;
41693;SDS011;27377;50.666;9.150;2022-12-08T11:32:46;15.98;;;10.70;;
41693;SDS011;27377;50.666;9.150;2022-12-08T11:35:37;15.63;;;10.48;;
41693;SDS011;27377;50.666;9.150;2022-12-08T11:38:11;16.63;;;10.63;;
41693;SDS011;27377;50.666;9.150;2022-12-08T11:40:39;15.38;;;10.25;;
41693;SDS011;27377;50.666;9.150;2022-12-08T11:45:45;17.20;;;10.77;;
41693;SDS011;27377;50.666;9.150;2022-12-08T11:48:16;15.32;;;10.48;;
41693;SDS011;27377;50.666;9.150;2022-12-08T11:50:55;16.02;;;10.60;;
41693;SDS011;27377;50.666;9.150;2022-12-08T11:53:29;17.10;;;10.85;;
41693;SDS011;27377;50.666;9.150;2022-12-08T11:58:49;13.55;;;9.45;;
41693;SDS011;27377;50.666;9.150;2022-12-08T12:01:19;20.08;;;11.50;;
41693;SDS011;27377;50.666;9.150;2022-12-08T12:03:52;17.58;;;10.95;;
41693;SDS011;27377;50.666;9.150;2022-12-08T12:06:26;16.58;;;10.77;;
41693;SDS011;27377;50.666;9.150;2022-12-08T12:12:24;15.97;;;9.43;;
41693;SDS011;27377;50.666;9.150;2022-12-08T12:15:27;14.88;;;10.15;;
41693;SDS011;27377;50.666;9.150;2022-12-08T12:23:40;15.10;;;10.03;;
41693;SDS011;27377;50.666;9.150;2022-12-08T12:26:17;15.38;;;9.73;;
41693;SDS011;27377;50.666;9.150;2022-12-08T12:29:02;14.98;;;9.80;;
41693;SDS011;27377;50.666;9.150;2022-12-08T12:31:39;15.20;;;10.23;;
41693;SDS011;27377;50.666;9.150;2022-12-08T12:34:10;14.70;;;10.03;;
41693;SDS011;27377;50.666;9.150;2022-12-08T12:36:54;16.88;;;10.52;;
41693;SDS011;27377;50.666;9.150;2022-12-08T12:39:28;16.13;;;10.43;;
41693;SDS011;27377;50.666;9.150;2022-12-08T12:41:57;15.38;;;9.85;;
41693;SDS011;27377;50.666;9.150;2022-12-08T12:47:00;13.95;;;9.88;;
41693;SDS011;27377;50.666;9.150;2022-12-08T13:02:21;15.73;;;10.40;;
41693;SDS011;27377;50.666;9.150;2022-12-08T13:07:30;17.85;;;11.80;;
41693;SDS011;27377;50.666;9.150;2022-12-08T13:10:09;17.17;;;11.57;;
41693;SDS011;27377;50.666;9.150;2022-12-08T13:15:35;17.40;;;11.15;;
41693;SDS011;27377;50.666;9.150;2022-12-08T13:18:18;17.17;;;10.52;;
41693;SDS011;27377;50.666;9.150;2022-12-08T13:21:03;24.88;;;15.20;;
41693;SDS011;27377;50.666;9.150;2022-12-08T13:26:08;17.80;;;11.60;;
41693;SDS011;27377;50.666;9.150;2022-12-08T13:31:41;20.33;;;12.15;;
41693;SDS011;27377;50.666;9.150;2022-12-08T13:34:08;17.52;;;11.13;;
41693;SDS011;27377;50.666;9.150;2022-12-08T13:37:03;17.00;;;11.20;;
41693;SDS011;27377;50.666;9.150;2022-12-08T13:42:23;15.45;;;10.75;;
41693;SDS011;27377;50.666;9.150;2022-12-08T13:44:58;17.17;;;10.60;;
41693;SDS011;27377;50.666;9.150;2022-12-08T13:47:30;15.53;;;11.13;;
41693;SDS011;27377;50.666;9.150;2022-12-08T13:52:48;18.57;;;10.10;;
41693;SDS011;27377;50.666;9.150;2022-12-08T13:58:18;14.90;;;10.13;;
41693;SDS011;27377;50.666;9.150;2022-12-08T14:00:52;14.60;;;9.82;;
41693;SDS011;27377;50.666;9.150;2022-12-08T14:03:21;16.20;;;10.48;;
41693;SDS011;27377;50.666;9.150;2022-12-08T14:05:47;16.02;;;10.43;;
41693;SDS011;27377;50.666;9.150;2022-12-08T14:08:27;14.25;;;9.52;;
41693;SDS011;27377;50.666;9.150;2022-12-08T14:11:01;14.40;;;9.43;;
41693;SDS011;27377;50.666;9.150;2022-12-08T14:13:30;13.88;;;9.90;;
41693;SDS011;27377;50.666;9.150;2022-12-08T14:15:58;13.82;;;9.20;;
41693;SDS011;27377;50.666;9.150;2022-12-08T14:18:24;14.93;;;9.30;;
41693;SDS011;27377;50.666;9.150;2022-12-08T14:20:59;17.48;;;9.77;;
41693;SDS011;27377;50.666;9.150;2022-12-08T14:23:26;15.95;;;9.60;;
41693;SDS011;27377;50.666;9.150;2022-12-08T14:25:52;13.95;;;9.15;;
41693;SDS011;27377;50.666;9.150;2022-12-08T14:28:18;15.60;;;9.82;;
41693;SDS011;27377;50.666;9.150;2022-12-08T14:30:45;14.57;;;9.00;;
41693;SDS011;27377;50.666;9.150;2022-12-08T14:33:13;14.38;;;9.13;;
41693;SDS011;27377;50.666;9.150;2022-12-08T14:35:41;12.63;;;8.35;;
41693;SDS011;27377;50.666;9.150;2022-12-08T14:38:14;12.77;;;8.20;;
41693;SDS011;27377;50.666;9.150;2022-12-08T14:41:04;12.57;;;7.82;;
41693;SDS011;27377;50.666;9.150;2022-12-08T14:43:31;12.68;;;7.38;;
41693;SDS011;27377;50.666;9.150;2022-12-08T14:46:01;12.70;;;6.63;;
41693;SDS011;27377;50.666;9.150;2022-12-08T14:51:11;6.78;;;4.00;;
41693;SDS011;27377;50.666;9.150;2022-12-08T14:53:46;5.40;;;3.07;;
41693;SDS011;27377;50.666;9.150;2022-12-08T14:56:28;6.05;;;3.55;;
41693;SDS011;27377;50.666;9.150;2022-12-08T15:01:38;5.03;;;3.08;;
41693;SDS011;27377;50.666;9.150;2022-12-08T15:06:50;5.13;;;2.85;;
41693;SDS011;27377;50.666;9.150;2022-12-08T15:09:29;5.82;;;3.33;;
41693;SDS011;27377;50.666;9.150;2022-12-08T15:12:01;6.50;;;3.10;;
41693;SDS011;27377;50.666;9.150;2022-12-08T15:14:37;4.73;;;3.10;;
41693;SDS011;27377;50.666;9.150;2022-12-08T15:17:25;5.85;;;3.30;;
41693;SDS011;27377;50.666;9.150;2022-12-08T15:19:58;5.80;;;3.20;;
41693;SDS011;27377;50.666;9.150;2022-12-08T15:22:25;6.50;;;3.20;;
41693;SDS011;27377;50.666;9.150;2022-12-08T15:24:53;6.65;;;3.60;;
41693;SDS011;27377;50.666;9.150;2022-12-08T15:27:20;6.35;;;3.10;;
41693;SDS011;27377;50.666;9.150;2022-12-08T15:29:47;5.63;;;3.00;;
41693;SDS011;27377;50.666;9.150;2022-12-08T15:32:15;4.95;;;2.90;;
41693;SDS011;27377;50.666;9.150;2022-12-08T15:34:43;5.72;;;2.80;;
41693;SDS011;27377;50.666;9.150;2022-12-08T15:37:27;5.78;;;3.03;;
41693;SDS011;27377;50.666;9.150;2022-12-08T15:39:52;5.20;;;3.00;;
41693;SDS011;27377;50.666;9.150;2022-12-08T15:42:18;5.23;;;3.07;;
41693;SDS011;27377;50.666;9.150;2022-12-08T15:44:44;6.70;;;3.53;;
41693;SDS011;27377;50.666;9.150;2022-12-08T15:47:13;7.77;;;2.80;;
41693;SDS011;27377;50.666;9.150;2022-12-08T15:49:43;5.45;;;2.97;;
41693;SDS011;27377;50.666;9.150;2022-12-08T15:52:13;7.22;;;3.50;;
41693;SDS011;27377;50.666;9.150;2022-12-08T15:54:41;6.60;;;3.40;;
41693;SDS011;27377;50.666;9.150;2022-12-08T15:57:09;7.00;;;3.27;;
41693;SDS011;27377;50.666;9.150;2022-12-08T15:59:50;4.68;;;3.00;;
41693;SDS011;27377;50.666;9.150;2022-12-08T16:02:16;6.23;;;3.67;;
41693;SDS011;27377;50.666;9.150;2022-12-08T16:04:42;7.28;;;3.80;;
41693;SDS011;27377;50.666;9.150;2022-12-08T16:07:24;6.23;;;3.80;;
41693;SDS011;27377;50.666;9.150;2022-12-08T16:09:52;6.03;;;3.70;;
41693;SDS011;27377;50.666;9.150;2022-12-08T16:12:20;7.00;;;3.90;;
41693;SDS011;27377;50.666;9.150;2022-12-08T16:15:06;6.38;;;3.50;;
41693;SDS011;27377;50.666;9.150;2022-12-08T16:17:32;6.63;;;3.60;;
41693;SDS011;27377;50.666;9.150;2022-12-08T16:19:59;6.18;;;3.67;;
41693;SDS011;27377;50.666;9.150;2022-12-08T16:22:28;6.50;;;3.63;;